createdAt,value
2018-05-06T00:01:27.740Z,52.07
2018-05-06T00:03:54.403Z,51.77
2018-05-06T00:06:21.040Z,52.08
2018-05-06T00:08:47.852Z,52.46
2018-05-06T00:11:14.668Z,51.91
2018-05-06T00:13:40.484Z,51.85
2018-05-06T00:16:06.330Z,51.74
2018-05-06T00:18:32.140Z,51.88
2018-05-06T00:20:58.338Z,52.30
2018-05-06T00:23:25.081Z,52.27
2018-05-06T00:25:50.881Z,51.99
2018-05-06T00:28:16.680Z,51.68
2018-05-06T00:30:43.388Z,51.92
2018-05-06T00:33:10.135Z,51.76
2018-05-06T00:35:36.740Z,51.02
2018-05-06T00:38:03.508Z,51.17
2018-05-06T00:40:29.311Z,51.47
2018-05-06T00:42:56.080Z,52.24
2018-05-06T00:45:22.897Z,51.43
2018-05-06T00:47:49.585Z,51.56
2018-05-06T00:50:16.445Z,50.92
2018-05-06T00:52:42.248Z,50.39
2018-05-06T00:55:09.052Z,51.02
2018-05-06T00:57:34.888Z,50.67
2018-05-06T01:00:00.685Z,50.88
2018-05-06T01:02:26.536Z,50.85
2018-05-06T01:04:52.336Z,50.94
2018-05-06T01:07:18.152Z,50.59
2018-05-06T01:09:43.952Z,50.49
2018-05-06T01:12:09.752Z,50.60
2018-05-06T01:14:36.360Z,50.23
2018-05-06T01:17:02.159Z,50.57
2018-05-06T01:19:27.950Z,50.50
2018-05-06T01:21:53.747Z,50.71
2018-05-06T01:24:19.585Z,50.45
2018-05-06T01:26:45.420Z,50.32
2018-05-06T01:29:11.233Z,50.58
2018-05-06T01:31:37.038Z,49.92
2018-05-06T01:34:02.864Z,50.14
2018-05-06T01:36:28.813Z,50.47
2018-05-06T01:38:54.617Z,50.44
2018-05-06T01:41:20.469Z,50.24
2018-05-06T01:43:46.287Z,50.27
2018-05-06T01:46:12.089Z,50.37
2018-05-06T01:48:37.895Z,50.15
2018-05-06T01:51:03.692Z,50.20
2018-05-06T01:53:29.488Z,49.72
2018-05-06T01:55:55.308Z,50.03
2018-05-06T01:58:21.104Z,50.06
2018-05-06T02:00:46.946Z,50.17
2018-05-06T02:03:12.749Z,50.28
2018-05-06T02:05:38.551Z,50.12
2018-05-06T02:08:04.381Z,49.88
2018-05-06T02:10:30.268Z,49.68
2018-05-06T02:12:56.069Z,50.02
2018-05-06T02:15:21.876Z,49.91
2018-05-06T02:17:47.693Z,50.03
2018-05-06T02:20:13.496Z,49.81
2018-05-06T02:22:39.296Z,49.94
2018-05-06T02:25:05.125Z,49.93
2018-05-06T02:27:30.965Z,49.83
2018-05-06T02:29:56.765Z,50.14
2018-05-06T02:32:22.616Z,49.74
2018-05-06T02:34:48.552Z,49.96
2018-05-06T02:37:14.494Z,50.02
2018-05-06T02:39:40.336Z,49.65
2018-05-06T02:42:06.136Z,50.14
2018-05-06T02:44:32.000Z,49.94
2018-05-06T02:46:57.828Z,49.99
2018-05-06T02:49:23.656Z,50.09
2018-05-06T02:51:49.472Z,49.98
2018-05-06T02:54:15.308Z,50.02
2018-05-06T02:56:41.111Z,49.96
2018-05-06T02:59:06.908Z,49.95
2018-05-06T03:01:32.728Z,49.88
2018-05-06T03:03:58.529Z,49.89
2018-05-06T03:06:24.397Z,49.85
2018-05-06T03:08:50.200Z,49.62
2018-05-06T03:11:16.046Z,49.87
2018-05-06T03:13:41.849Z,49.76
2018-05-06T03:16:07.664Z,49.36
2018-05-06T03:18:33.476Z,49.85
2018-05-06T03:20:59.360Z,49.81
2018-05-06T03:23:25.197Z,49.75
2018-05-06T03:25:52.071Z,49.99
2018-05-06T03:28:17.916Z,50.01
2018-05-06T03:30:43.740Z,50.01
2018-05-06T03:33:09.677Z,49.92
2018-05-06T03:35:35.480Z,49.72
2018-05-06T03:38:01.320Z,50.02
2018-05-06T03:40:27.136Z,49.77
2018-05-06T03:42:52.941Z,50.04
2018-05-06T03:45:18.741Z,49.97
2018-05-06T03:47:44.544Z,49.70
2018-05-06T03:50:10.381Z,50.00
2018-05-06T03:52:36.177Z,49.93
2018-05-06T03:55:02.023Z,49.75
2018-05-06T03:57:34.117Z,49.70
2018-05-06T04:00:06.188Z,49.67
2018-05-06T04:02:38.024Z,49.62
2018-05-06T04:05:03.863Z,50.03
2018-05-06T04:07:29.689Z,49.51
2018-05-06T04:09:55.777Z,50.08
2018-05-06T04:12:21.577Z,49.73
2018-05-06T04:14:47.377Z,49.77
2018-05-06T04:17:13.184Z,50.01
2018-05-06T04:19:38.993Z,49.89
2018-05-06T04:22:04.833Z,49.71
2018-05-06T04:24:30.673Z,49.59
2018-05-06T04:26:56.473Z,49.42
2018-05-06T04:29:22.275Z,49.70
2018-05-06T04:31:48.088Z,50.08
2018-05-06T04:34:13.892Z,49.73
2018-05-06T04:36:39.732Z,49.90
2018-05-06T04:39:05.529Z,49.61
2018-05-06T04:41:31.379Z,49.59
2018-05-06T04:43:57.191Z,49.72
2018-05-06T04:46:22.999Z,49.71
2018-05-06T04:48:48.800Z,49.50
2018-05-06T04:51:14.600Z,49.75
2018-05-06T04:53:40.397Z,49.60
2018-05-06T04:56:06.201Z,49.40
2018-05-06T04:58:32.009Z,49.19
2018-05-06T05:00:57.808Z,49.37
2018-05-06T05:03:23.604Z,49.41
2018-05-06T05:05:49.433Z,49.37
2018-05-06T05:08:15.240Z,49.13
2018-05-06T05:10:41.040Z,49.67
2018-05-06T05:13:06.844Z,49.53
2018-05-06T05:15:32.749Z,49.66
2018-05-06T05:17:58.552Z,49.78
2018-05-06T05:20:24.365Z,49.55
2018-05-06T05:22:50.181Z,49.33
2018-05-06T05:25:15.983Z,49.39
2018-05-06T05:27:41.784Z,49.33
2018-05-06T05:30:07.633Z,49.31
2018-05-06T05:32:33.436Z,49.53
2018-05-06T05:34:59.238Z,49.70
2018-05-06T05:37:25.089Z,49.72
2018-05-06T05:39:50.897Z,49.67
2018-05-06T05:42:16.701Z,49.69
2018-05-06T05:44:42.500Z,49.83
2018-05-06T05:47:08.304Z,49.86
2018-05-06T05:49:34.224Z,49.59
2018-05-06T05:52:00.024Z,49.74
2018-05-06T05:54:25.828Z,49.44
2018-05-06T05:56:51.679Z,49.62
2018-05-06T05:59:17.485Z,49.33
2018-05-06T06:01:43.297Z,49.44
2018-05-06T06:04:09.213Z,49.76
2018-05-06T06:06:35.024Z,49.72
2018-05-06T06:09:00.854Z,49.50
2018-05-06T06:11:26.664Z,49.94
2018-05-06T06:13:52.492Z,50.63
2018-05-06T06:16:18.297Z,50.82
2018-05-06T06:18:44.096Z,50.96
2018-05-06T06:21:09.937Z,50.48
2018-05-06T06:23:35.733Z,50.38
2018-05-06T06:26:01.733Z,50.71
2018-05-06T06:28:27.532Z,50.81
2018-05-06T06:30:53.381Z,51.72
2018-05-06T06:33:19.192Z,51.21
2018-05-06T06:35:44.998Z,51.11
2018-05-06T06:38:10.840Z,51.33
2018-05-06T06:40:36.648Z,51.48
2018-05-06T06:43:02.566Z,51.73
2018-05-06T06:45:28.369Z,51.45
2018-05-06T06:47:54.206Z,51.61
2018-05-06T06:50:20.008Z,51.70
2018-05-06T06:52:45.828Z,51.04
2018-05-06T06:55:11.628Z,50.94
2018-05-06T06:57:37.486Z,50.88
2018-05-06T07:00:03.309Z,50.57
2018-05-06T07:02:29.177Z,50.13
2018-05-06T07:04:54.980Z,49.63
2018-05-06T07:07:20.784Z,49.79
2018-05-06T07:09:46.584Z,49.85
2018-05-06T07:12:12.408Z,49.61
2018-05-06T07:14:38.205Z,49.38
2018-05-06T07:17:04.008Z,49.62
2018-05-06T07:19:29.818Z,49.67
2018-05-06T07:21:55.787Z,48.97
2018-05-06T07:24:21.609Z,49.62
2018-05-06T07:26:47.425Z,49.61
2018-05-06T07:29:13.239Z,49.96
2018-05-06T07:31:39.060Z,49.93
2018-05-06T07:34:04.921Z,50.23
2018-05-06T07:36:30.788Z,50.13
2018-05-06T07:38:56.596Z,50.10
2018-05-06T07:41:22.432Z,50.14
2018-05-06T07:43:48.237Z,50.25
2018-05-06T07:46:14.037Z,50.33
2018-05-06T07:48:39.848Z,50.31
2018-05-06T07:51:12.573Z,50.41
2018-05-06T07:53:38.388Z,50.71
2018-05-06T07:56:04.192Z,50.58
2018-05-06T07:58:29.996Z,50.84
2018-05-06T08:00:55.840Z,50.73
2018-05-06T08:03:21.649Z,50.59
2018-05-06T08:05:47.449Z,50.71
2018-05-06T08:08:13.334Z,50.81
2018-05-06T08:10:39.142Z,50.57
2018-05-06T08:13:04.951Z,50.84
2018-05-06T08:15:31.410Z,50.85
2018-05-06T08:17:57.281Z,50.96
2018-05-06T08:20:23.151Z,50.87
2018-05-06T08:22:49.034Z,50.92
2018-05-06T08:25:14.841Z,50.92
2018-05-06T08:27:41.613Z,51.01
2018-05-06T08:30:07.416Z,51.36
2018-05-06T08:32:33.220Z,51.20
2018-05-06T08:34:59.025Z,51.38
2018-05-06T08:37:24.869Z,51.15
2018-05-06T08:39:50.718Z,51.58
2018-05-06T08:42:16.554Z,51.45
2018-05-06T08:44:42.358Z,51.54
2018-05-06T08:47:08.184Z,51.67
2018-05-06T08:49:33.985Z,51.70
2018-05-06T08:51:59.790Z,51.62
2018-05-06T08:54:25.713Z,52.04
2018-05-06T08:56:51.632Z,51.93
2018-05-06T08:59:17.487Z,52.09
2018-05-06T09:01:43.285Z,51.85
2018-05-06T09:04:09.094Z,52.14
2018-05-06T09:06:34.942Z,51.82
2018-05-06T09:09:01.234Z,51.98
2018-05-06T09:11:27.040Z,51.96
2018-05-06T09:13:52.874Z,51.93
2018-05-06T09:16:18.677Z,51.75
2018-05-06T09:18:44.487Z,51.97
2018-05-06T09:21:10.293Z,51.98
2018-05-06T09:23:36.101Z,52.36
2018-05-06T09:26:01.905Z,52.25
2018-05-06T09:28:27.705Z,52.50
2018-05-06T09:30:53.527Z,52.30
2018-05-06T09:33:19.329Z,52.13
2018-05-06T09:35:45.136Z,51.93
2018-05-06T09:38:10.945Z,52.24
2018-05-06T09:40:36.801Z,52.31
2018-05-06T09:43:02.597Z,52.45
2018-05-06T09:45:28.400Z,52.53
2018-05-06T09:47:54.256Z,52.42
2018-05-06T09:50:20.056Z,52.43
2018-05-06T09:52:45.896Z,52.42
2018-05-06T09:55:11.693Z,52.28
2018-05-06T09:57:37.493Z,52.69
2018-05-06T10:00:03.317Z,52.42
2018-05-06T10:02:29.115Z,52.64
2018-05-06T10:04:54.924Z,52.50
2018-05-06T10:07:20.736Z,52.68
2018-05-06T10:09:46.549Z,52.70
2018-05-06T10:12:12.361Z,52.65
2018-05-06T10:14:38.161Z,52.72
2018-05-06T10:17:03.998Z,52.54
2018-05-06T10:19:29.806Z,51.80
2018-05-06T10:21:55.620Z,51.37
2018-05-06T10:24:21.423Z,51.69
2018-05-06T10:26:47.272Z,51.85
2018-05-06T10:29:13.076Z,51.73
2018-05-06T10:31:38.881Z,51.40
2018-05-06T10:34:04.686Z,51.57
2018-05-06T10:36:30.520Z,52.25
2018-05-06T10:38:56.321Z,52.22
2018-05-06T10:41:22.123Z,52.44
2018-05-06T10:43:47.926Z,52.45
2018-05-06T10:46:13.773Z,52.40
2018-05-06T10:48:39.635Z,52.50
2018-05-06T10:51:05.509Z,52.38
2018-05-06T10:53:31.324Z,52.64
2018-05-06T10:55:57.174Z,52.72
2018-05-06T10:58:22.976Z,52.71
2018-05-06T11:00:48.818Z,52.71
2018-05-06T11:03:14.665Z,52.70
2018-05-06T11:05:40.468Z,52.72
2018-05-06T11:08:06.280Z,52.54
2018-05-06T11:10:32.096Z,52.67
2018-05-06T11:12:57.906Z,52.81
2018-05-06T11:15:23.745Z,52.89
2018-05-06T11:17:49.594Z,52.89
2018-05-06T11:20:17.181Z,52.94
2018-05-06T11:22:43.301Z,52.88
2018-05-06T11:25:09.133Z,52.99
2018-05-06T11:27:34.946Z,53.02
2018-05-06T11:30:00.806Z,52.79
2018-05-06T11:32:26.769Z,52.93
2018-05-06T11:34:52.644Z,52.98
2018-05-06T11:37:18.485Z,53.01
2018-05-06T11:39:44.289Z,53.07
2018-05-06T11:42:10.137Z,53.08
2018-05-06T11:44:35.973Z,52.85
2018-05-06T11:47:01.776Z,53.00
2018-05-06T11:49:27.581Z,52.96
2018-05-06T11:51:53.423Z,53.01
2018-05-06T11:54:19.277Z,53.14
2018-05-06T11:56:45.075Z,53.30
2018-05-06T11:59:10.920Z,53.05
2018-05-06T12:01:36.856Z,53.29
2018-05-06T12:04:02.702Z,53.05
2018-05-06T12:06:28.648Z,53.35
2018-05-06T12:08:54.481Z,53.05
2018-05-06T12:11:21.285Z,53.22
2018-05-06T12:13:47.112Z,53.32
2018-05-06T12:16:13.546Z,53.29
2018-05-06T12:18:39.489Z,53.36
2018-05-06T12:21:05.393Z,53.31
2018-05-06T12:23:31.353Z,53.20
2018-05-06T12:25:57.160Z,53.36
2018-05-06T12:28:22.967Z,52.78
2018-05-06T12:30:48.804Z,53.06
2018-05-06T12:33:14.772Z,53.20
2018-05-06T12:35:40.614Z,53.56
2018-05-06T12:38:06.496Z,52.99
2018-05-06T12:40:32.313Z,53.64
2018-05-06T12:42:58.118Z,52.49
2018-05-06T12:45:23.950Z,53.08
2018-05-06T12:47:49.773Z,53.11
2018-05-06T12:50:16.224Z,53.57
2018-05-06T12:52:42.100Z,53.19
2018-05-06T12:55:07.905Z,53.28
2018-05-06T12:57:33.808Z,53.54
2018-05-06T12:59:59.619Z,52.78
2018-05-06T13:02:25.573Z,53.17
2018-05-06T13:04:51.400Z,52.85
2018-05-06T13:07:17.281Z,52.56
2018-05-06T13:09:43.041Z,51.77
2018-05-06T13:12:08.847Z,50.84
2018-05-06T13:14:34.658Z,50.76
2018-05-06T13:17:00.460Z,50.79
2018-05-06T13:19:26.264Z,50.67
2018-05-06T13:21:52.077Z,50.40
2018-05-06T13:24:17.886Z,50.61
2018-05-06T13:26:43.712Z,50.60
2018-05-06T13:29:09.541Z,50.90
2018-05-06T13:31:35.469Z,50.71
2018-05-06T13:34:01.371Z,50.31
2018-05-06T13:36:27.180Z,50.86
2018-05-06T13:38:53.005Z,50.73
2018-05-06T13:41:18.860Z,50.68
2018-05-06T13:43:44.683Z,51.02
2018-05-06T13:46:10.572Z,51.02
2018-05-06T13:48:36.348Z,50.85
2018-05-06T13:51:02.152Z,51.27
2018-05-06T13:53:27.969Z,50.62
2018-05-06T13:55:53.777Z,50.88
2018-05-06T13:58:19.640Z,50.55
2018-05-06T14:00:45.457Z,51.31
2018-05-06T14:03:11.260Z,50.85
2018-05-06T14:05:37.638Z,51.42
2018-05-06T14:08:03.461Z,50.73
2018-05-06T14:10:29.272Z,51.13
2018-05-06T14:12:55.940Z,50.74
2018-05-06T14:15:21.780Z,50.77
2018-05-06T14:17:47.579Z,50.56
2018-05-06T14:20:13.453Z,50.68
2018-05-06T14:22:39.264Z,51.03
2018-05-06T14:25:05.920Z,51.01
2018-05-06T14:27:31.720Z,51.59
2018-05-06T14:29:58.542Z,51.54
2018-05-06T14:32:24.344Z,50.92
2018-05-06T14:34:50.177Z,50.99
2018-05-06T14:37:15.980Z,51.38
2018-05-06T14:39:42.949Z,51.77
2018-05-06T14:42:08.757Z,52.01
2018-05-06T14:44:34.557Z,52.11
2018-05-06T14:47:06.648Z,52.05
2018-05-06T14:49:32.449Z,52.23
2018-05-06T14:51:58.260Z,52.40
2018-05-06T14:54:24.061Z,52.50
2018-05-06T14:56:49.902Z,52.40
2018-05-06T14:59:15.704Z,52.58
2018-05-06T15:01:41.533Z,52.54
2018-05-06T15:04:07.361Z,52.56
2018-05-06T15:06:33.213Z,52.62
2018-05-06T15:08:59.516Z,52.65
2018-05-06T15:11:25.325Z,52.68
2018-05-06T15:13:51.158Z,52.60
2018-05-06T15:16:16.980Z,52.76
2018-05-06T15:18:42.777Z,52.83
2018-05-06T15:21:08.630Z,52.85
2018-05-06T15:23:34.481Z,52.83
2018-05-06T15:26:00.324Z,52.86
2018-05-06T15:28:26.164Z,52.83
2018-05-06T15:30:51.964Z,53.06
2018-05-06T15:33:17.905Z,52.93
2018-05-06T15:35:43.709Z,52.84
2018-05-06T15:38:09.524Z,52.89
2018-05-06T15:40:35.373Z,52.86
2018-05-06T15:43:01.214Z,52.94
2018-05-06T15:45:27.017Z,52.91
2018-05-06T15:47:52.865Z,52.94
2018-05-06T15:50:18.770Z,53.02
2018-05-06T15:52:44.600Z,53.09
2018-05-06T15:55:10.400Z,53.21
2018-05-06T15:57:36.245Z,53.08
2018-05-06T16:00:02.064Z,52.99
2018-05-06T16:05:19.148Z,53.43
2018-05-06T16:07:44.986Z,53.27
2018-05-06T16:10:10.812Z,53.30
2018-05-06T16:12:36.656Z,53.24
2018-05-06T16:15:02.477Z,53.08
2018-05-06T16:17:29.244Z,53.21
2018-05-06T16:19:55.057Z,53.29
2018-05-06T16:22:20.864Z,53.45
2018-05-06T16:24:46.741Z,53.16
2018-05-06T16:27:12.605Z,53.14
2018-05-06T16:29:38.495Z,53.27
2018-05-06T16:32:04.245Z,53.29
2018-05-06T16:34:30.048Z,53.34
2018-05-06T16:36:55.895Z,53.26
2018-05-06T16:39:21.740Z,53.45
2018-05-06T16:41:47.545Z,53.42
2018-05-06T16:44:13.389Z,53.35
2018-05-06T16:46:39.196Z,53.51
2018-05-06T16:49:04.999Z,53.57
2018-05-06T16:51:30.813Z,53.46
2018-05-06T16:53:56.621Z,53.62
2018-05-06T16:56:22.427Z,53.58
2018-05-06T16:58:48.360Z,53.43
2018-05-06T17:01:14.193Z,53.56
2018-05-06T17:03:40.136Z,53.52
2018-05-06T17:06:05.968Z,53.66
2018-05-06T17:08:31.781Z,53.74
2018-05-06T17:10:57.624Z,53.69
2018-05-06T17:13:23.428Z,53.71
2018-05-06T17:15:49.473Z,53.49
2018-05-06T17:18:15.272Z,53.28
2018-05-06T17:20:41.076Z,52.81
2018-05-06T17:23:06.880Z,52.52
2018-05-06T17:25:32.685Z,52.28
2018-05-06T17:27:58.517Z,51.93
2018-05-06T17:30:24.320Z,51.42
2018-05-06T17:32:50.116Z,51.22
2018-05-06T17:35:15.916Z,50.67
2018-05-06T17:37:41.726Z,50.87
2018-05-06T17:40:07.533Z,50.67
2018-05-06T17:42:33.386Z,50.40
2018-05-06T17:44:59.188Z,50.11
2018-05-06T17:47:25.069Z,50.44
2018-05-06T17:49:50.871Z,49.91
2018-05-06T17:52:16.685Z,49.31
2018-05-06T17:54:43.029Z,50.10
2018-05-06T17:57:08.828Z,49.83
2018-05-06T17:59:34.630Z,50.20
2018-05-06T18:02:00.454Z,50.04
2018-05-06T18:04:26.308Z,50.26
2018-05-06T18:06:52.113Z,50.51
2018-05-06T18:09:17.922Z,50.67
2018-05-06T18:11:43.741Z,50.73
2018-05-06T18:14:09.544Z,50.65
2018-05-06T18:16:35.345Z,50.91
2018-05-06T18:19:01.182Z,50.83
2018-05-06T18:21:26.990Z,51.14
2018-05-06T18:23:53.045Z,51.06
2018-05-06T18:26:18.892Z,52.03
2018-05-06T18:28:44.698Z,51.15
2018-05-06T18:31:10.505Z,51.11
2018-05-06T18:33:36.308Z,51.10
2018-05-06T18:36:02.137Z,51.33
2018-05-06T18:38:27.945Z,51.40
2018-05-06T18:40:53.785Z,51.50
2018-05-06T18:43:19.700Z,51.58
2018-05-06T18:45:45.550Z,51.73
2018-05-06T18:48:11.390Z,51.74
2018-05-06T18:50:37.305Z,51.81
2018-05-06T18:53:03.113Z,51.94
2018-05-06T18:55:28.975Z,51.92
2018-05-06T18:57:54.777Z,51.89
2018-05-06T19:00:20.749Z,52.04
2018-05-06T19:02:47.057Z,52.10
2018-05-06T19:05:13.134Z,52.18
2018-05-06T19:07:38.999Z,52.24
2018-05-06T19:10:04.886Z,52.31
2018-05-06T19:12:30.733Z,52.33
2018-05-06T19:14:56.624Z,52.42
2018-05-06T19:17:22.512Z,52.49
2018-05-06T19:19:49.692Z,52.50
2018-05-06T19:22:18.282Z,52.58
2018-05-06T19:24:45.735Z,52.80
2018-05-06T19:27:12.886Z,52.68
2018-05-06T19:29:39.979Z,52.66
2018-05-06T19:32:07.200Z,52.89
2018-05-06T19:34:33.274Z,52.54
2018-05-06T19:36:59.214Z,52.46
2018-05-06T19:39:25.070Z,52.60
2018-05-06T19:41:50.887Z,52.60
2018-05-06T19:44:16.738Z,52.55
2018-05-06T19:46:42.561Z,52.25
2018-05-06T19:49:08.481Z,52.57
2018-05-06T19:51:34.378Z,52.64
2018-05-06T19:54:00.386Z,52.66
2018-05-06T19:56:27.003Z,52.66
2018-05-06T19:58:52.813Z,52.87
2018-05-06T20:01:18.637Z,52.78
2018-05-06T20:03:44.445Z,52.66
2018-05-06T20:06:10.299Z,52.75
2018-05-06T20:08:36.108Z,52.71
2018-05-06T20:11:01.929Z,52.77
2018-05-06T20:13:27.745Z,52.94
2018-05-06T20:15:53.592Z,52.96
2018-05-06T20:18:19.412Z,53.17
2018-05-06T20:20:45.223Z,52.89
2018-05-06T20:23:11.028Z,52.95
2018-05-06T20:25:36.846Z,52.99
2018-05-06T20:28:02.692Z,53.06
2018-05-06T20:30:28.604Z,52.75
2018-05-06T20:32:54.561Z,53.12
2018-05-06T20:35:20.463Z,53.29
2018-05-06T20:37:46.272Z,53.39
2018-05-06T20:40:12.560Z,53.23
2018-05-06T20:42:38.370Z,53.86
2018-05-06T20:45:04.189Z,53.46
2018-05-06T20:47:30.056Z,53.67
2018-05-06T20:49:55.902Z,53.66
2018-05-06T20:52:21.983Z,53.88
2018-05-06T20:54:47.881Z,53.23
2018-05-06T20:57:13.753Z,53.60
2018-05-06T20:59:39.671Z,53.82
2018-05-06T21:02:05.489Z,54.06
2018-05-06T21:04:31.292Z,53.97
2018-05-06T21:06:57.096Z,53.99
2018-05-06T21:09:22.949Z,54.24
2018-05-06T21:11:48.753Z,54.33
2018-05-06T21:14:14.564Z,54.26
2018-05-06T21:16:40.372Z,54.50
2018-05-06T21:19:06.182Z,54.27
2018-05-06T21:21:32.025Z,54.40
2018-05-06T21:23:57.836Z,53.34
2018-05-06T21:26:23.672Z,54.38
2018-05-06T21:28:49.485Z,54.49
2018-05-06T21:31:15.324Z,54.68
2018-05-06T21:33:41.128Z,54.73
2018-05-06T21:36:06.936Z,54.87
2018-05-06T21:38:32.736Z,54.40
2018-05-06T21:40:58.553Z,54.26
2018-05-06T21:43:24.422Z,54.00
2018-05-06T21:45:50.212Z,53.92
2018-05-06T21:48:16.016Z,54.39
2018-05-06T21:50:41.829Z,53.77
2018-05-06T21:53:07.636Z,55.14
2018-05-06T21:55:33.446Z,55.28
2018-05-06T21:57:59.253Z,55.24
2018-05-06T22:00:25.174Z,55.26
2018-05-06T22:02:50.993Z,55.28
2018-05-06T22:05:16.799Z,55.57
2018-05-06T22:07:42.611Z,55.55
2018-05-06T22:10:08.429Z,55.58
2018-05-06T22:12:34.241Z,55.18
2018-05-06T22:15:00.046Z,54.90
2018-05-06T22:17:25.845Z,54.76
2018-05-06T22:19:51.653Z,55.01
2018-05-06T22:22:17.504Z,55.23
2018-05-06T22:24:43.313Z,55.13
2018-05-06T22:27:09.126Z,54.64
2018-05-06T22:29:34.977Z,54.59
2018-05-06T22:32:00.878Z,55.02
2018-05-06T22:34:26.677Z,55.00
2018-05-06T22:36:52.480Z,55.07
2018-05-06T22:39:19.185Z,54.27
2018-05-06T22:41:45.031Z,54.65
2018-05-06T22:44:10.838Z,55.42
2018-05-06T22:46:36.645Z,54.99
2018-05-06T22:49:02.457Z,53.95
2018-05-06T22:51:28.264Z,55.20
2018-05-06T22:53:54.066Z,54.62
2018-05-06T22:56:19.875Z,54.94
2018-05-06T22:58:46.256Z,54.42
2018-05-06T23:01:12.096Z,54.63
2018-05-06T23:03:37.897Z,54.86
2018-05-06T23:06:03.765Z,54.21
2018-05-06T23:08:29.601Z,54.11
2018-05-06T23:10:55.462Z,54.70
2018-05-06T23:13:21.306Z,53.93
2018-05-06T23:15:47.116Z,53.84
2018-05-06T23:18:12.928Z,53.90
2018-05-06T23:20:38.778Z,53.65
2018-05-06T23:23:04.678Z,54.04
2018-05-06T23:25:30.484Z,53.26
2018-05-06T23:27:56.384Z,54.20
2018-05-06T23:30:22.192Z,54.15
2018-05-06T23:32:48.000Z,53.72
2018-05-06T23:35:13.844Z,53.47
2018-05-06T23:37:39.653Z,53.39
2018-05-06T23:40:05.463Z,52.99
2018-05-06T23:42:31.304Z,53.18
2018-05-06T23:44:57.137Z,53.78
2018-05-06T23:47:22.989Z,52.77
2018-05-06T23:49:48.790Z,52.74
2018-05-06T23:52:14.605Z,53.51
2018-05-06T23:54:40.444Z,53.30
2018-05-06T23:57:06.252Z,53.25
2018-05-06T23:59:32.061Z,52.94
